sensor_id;sensor_type;location;lat;lon;timestamp;temperature;humidity
15991;DHT22;8100;50.994;4.538;2023-05-14T00:01:10;13.00;99.90
15991;DHT22;8100;50.994;4.538;2023-05-14T00:03:59;12.20;99.90
15991;DHT22;8100;50.994;4.538;2023-05-14T00:06:46;12.90;99.90
15991;DHT22;8100;50.994;4.538;2023-05-14T00:09:33;12.50;99.90
15991;DHT22;8100;50.994;4.538;2023-05-14T00:12:21;12.50;99.90
15991;DHT22;8100;50.994;4.538;2023-05-14T00:15:09;12.20;99.90
15991;DHT22;8100;50.994;4.538;2023-05-14T00:17:56;12.20;99.90
15991;DHT22;8100;50.994;4.538;2023-05-14T00:20:45;12.80;99.90
15991;DHT22;8100;50.994;4.538;2023-05-14T00:23:32;12.10;99.90
15991;DHT22;8100;50.994;4.538;2023-05-14T00:26:19;12.40;99.90
15991;DHT22;8100;50.994;4.538;2023-05-14T00:29:06;12.00;99.90
15991;DHT22;8100;50.994;4.538;2023-05-14T00:31:54;12.70;99.90
15991;DHT22;8100;50.994;4.538;2023-05-14T00:34:42;12.00;99.90
15991;DHT22;8100;50.994;4.538;2023-05-14T00:37:30;12.10;99.90
15991;DHT22;8100;50.994;4.538;2023-05-14T00:40:18;11.90;99.90
15991;DHT22;8100;50.994;4.538;2023-05-14T00:43:05;11.80;99.90
15991;DHT22;8100;50.994;4.538;2023-05-14T00:45:53;11.90;99.90
15991;DHT22;8100;50.994;4.538;2023-05-14T00:48:41;12.30;99.90
15991;DHT22;8100;50.994;4.538;2023-05-14T00:51:28;12.40;99.90
15991;DHT22;8100;50.994;4.538;2023-05-14T00:54:18;11.80;99.90
15991;DHT22;8100;50.994;4.538;2023-05-14T00:57:06;12.30;99.90
15991;DHT22;8100;50.994;4.538;2023-05-14T00:59:54;11.70;99.90
15991;DHT22;8100;50.994;4.538;2023-05-14T01:02:42;11.70;99.90
15991;DHT22;8100;50.994;4.538;2023-05-14T01:05:35;12.30;99.90
15991;DHT22;8100;50.994;4.538;2023-05-14T01:08:31;11.60;99.90
15991;DHT22;8100;50.994;4.538;2023-05-14T01:11:35;12.10;99.90
15991;DHT22;8100;50.994;4.538;2023-05-14T01:14:33;11.70;99.90
15991;DHT22;8100;50.994;4.538;2023-05-14T01:17:27;11.90;99.90
15991;DHT22;8100;50.994;4.538;2023-05-14T01:20:15;12.30;99.90
15991;DHT22;8100;50.994;4.538;2023-05-14T01:23:04;11.50;99.90
15991;DHT22;8100;50.994;4.538;2023-05-14T01:25:51;11.60;99.90
15991;DHT22;8100;50.994;4.538;2023-05-14T01:28:38;11.30;99.90
15991;DHT22;8100;50.994;4.538;2023-05-14T01:31:26;12.20;99.90
15991;DHT22;8100;50.994;4.538;2023-05-14T01:34:20;11.50;99.90
15991;DHT22;8100;50.994;4.538;2023-05-14T01:37:10;11.40;99.90
15991;DHT22;8100;50.994;4.538;2023-05-14T01:40:00;11.50;99.90
15991;DHT22;8100;50.994;4.538;2023-05-14T01:42:48;12.20;99.90
15991;DHT22;8100;50.994;4.538;2023-05-14T01:45:36;12.10;99.90
15991;DHT22;8100;50.994;4.538;2023-05-14T01:48:24;11.70;99.90
15991;DHT22;8100;50.994;4.538;2023-05-14T01:51:11;11.90;99.90
15991;DHT22;8100;50.994;4.538;2023-05-14T01:53:59;11.90;99.90
15991;DHT22;8100;50.994;4.538;2023-05-14T01:56:48;11.50;99.90
15991;DHT22;8100;50.994;4.538;2023-05-14T01:59:36;11.00;99.90
15991;DHT22;8100;50.994;4.538;2023-05-14T02:02:23;11.00;99.90
15991;DHT22;8100;50.994;4.538;2023-05-14T02:05:11;11.60;99.90
15991;DHT22;8100;50.994;4.538;2023-05-14T02:07:58;11.50;99.90
15991;DHT22;8100;50.994;4.538;2023-05-14T02:10:46;11.40;99.90
15991;DHT22;8100;50.994;4.538;2023-05-14T02:13:35;11.50;99.90
15991;DHT22;8100;50.994;4.538;2023-05-14T02:16:22;12.00;99.90
15991;DHT22;8100;50.994;4.538;2023-05-14T02:19:09;11.40;99.90
15991;DHT22;8100;50.994;4.538;2023-05-14T02:21:58;12.00;99.90
15991;DHT22;8100;50.994;4.538;2023-05-14T02:24:46;11.90;99.90
15991;DHT22;8100;50.994;4.538;2023-05-14T02:27:34;11.90;99.90
15991;DHT22;8100;50.994;4.538;2023-05-14T02:30:23;11.60;99.90
15991;DHT22;8100;50.994;4.538;2023-05-14T02:33:10;11.00;99.90
15991;DHT22;8100;50.994;4.538;2023-05-14T02:35:58;11.00;99.90
15991;DHT22;8100;50.994;4.538;2023-05-14T02:38:45;11.60;99.90
15991;DHT22;8100;50.994;4.538;2023-05-14T02:41:32;11.60;99.90
15991;DHT22;8100;50.994;4.538;2023-05-14T02:44:20;10.90;99.90
15991;DHT22;8100;50.994;4.538;2023-05-14T02:47:08;11.60;99.90
15991;DHT22;8100;50.994;4.538;2023-05-14T02:49:55;11.70;99.90
15991;DHT22;8100;50.994;4.538;2023-05-14T02:52:43;11.80;99.90
15991;DHT22;8100;50.994;4.538;2023-05-14T02:55:30;11.00;99.90
15991;DHT22;8100;50.994;4.538;2023-05-14T02:58:17;11.70;99.90
15991;DHT22;8100;50.994;4.538;2023-05-14T03:01:05;10.80;99.90
15991;DHT22;8100;50.994;4.538;2023-05-14T03:03:53;11.90;99.90
15991;DHT22;8100;50.994;4.538;2023-05-14T03:06:41;11.80;99.90
15991;DHT22;8100;50.994;4.538;2023-05-14T03:09:28;11.70;99.90
15991;DHT22;8100;50.994;4.538;2023-05-14T03:12:15;11.30;99.90
15991;DHT22;8100;50.994;4.538;2023-05-14T03:15:03;11.00;99.90
15991;DHT22;8100;50.994;4.538;2023-05-14T03:17:51;10.80;99.90
15991;DHT22;8100;50.994;4.538;2023-05-14T03:20:39;11.90;99.90
15991;DHT22;8100;50.994;4.538;2023-05-14T03:23:27;10.90;99.90
15991;DHT22;8100;50.994;4.538;2023-05-14T03:26:16;11.10;99.90
15991;DHT22;8100;50.994;4.538;2023-05-14T03:29:04;11.80;99.90
15991;DHT22;8100;50.994;4.538;2023-05-14T03:31:51;11.60;99.90
15991;DHT22;8100;50.994;4.538;2023-05-14T03:34:39;11.70;99.90
15991;DHT22;8100;50.994;4.538;2023-05-14T03:37:28;11.70;99.90
15991;DHT22;8100;50.994;4.538;2023-05-14T03:40:15;11.60;99.90
15991;DHT22;8100;50.994;4.538;2023-05-14T03:43:02;11.60;99.90
15991;DHT22;8100;50.994;4.538;2023-05-14T03:45:50;11.40;99.90
15991;DHT22;8100;50.994;4.538;2023-05-14T03:48:38;11.50;99.90
15991;DHT22;8100;50.994;4.538;2023-05-14T03:51:25;11.20;99.90
15991;DHT22;8100;50.994;4.538;2023-05-14T03:54:14;11.70;99.90
15991;DHT22;8100;50.994;4.538;2023-05-14T03:57:01;11.00;99.90
15991;DHT22;8100;50.994;4.538;2023-05-14T03:59:49;11.90;99.90
15991;DHT22;8100;50.994;4.538;2023-05-14T04:02:36;11.80;99.90
15991;DHT22;8100;50.994;4.538;2023-05-14T04:05:23;11.60;99.90
15991;DHT22;8100;50.994;4.538;2023-05-14T04:08:10;11.80;99.90
15991;DHT22;8100;50.994;4.538;2023-05-14T04:10:59;11.80;99.90
15991;DHT22;8100;50.994;4.538;2023-05-14T04:13:46;12.00;99.90
15991;DHT22;8100;50.994;4.538;2023-05-14T04:16:34;12.10;99.90
15991;DHT22;8100;50.994;4.538;2023-05-14T04:19:21;12.00;99.90
15991;DHT22;8100;50.994;4.538;2023-05-14T04:22:09;11.80;99.90
15991;DHT22;8100;50.994;4.538;2023-05-14T04:24:56;11.40;99.90
15991;DHT22;8100;50.994;4.538;2023-05-14T04:27:44;12.00;99.90
15991;DHT22;8100;50.994;4.538;2023-05-14T04:30:32;11.10;99.90
15991;DHT22;8100;50.994;4.538;2023-05-14T04:33:19;11.20;99.90
15991;DHT22;8100;50.994;4.538;2023-05-14T04:36:07;11.20;99.90
15991;DHT22;8100;50.994;4.538;2023-05-14T04:38:54;11.90;99.90
15991;DHT22;8100;50.994;4.538;2023-05-14T04:41:42;11.40;99.90
15991;DHT22;8100;50.994;4.538;2023-05-14T04:44:30;11.80;99.90
15991;DHT22;8100;50.994;4.538;2023-05-14T04:47:19;12.10;99.90
15991;DHT22;8100;50.994;4.538;2023-05-14T04:50:08;12.20;99.90
15991;DHT22;8100;50.994;4.538;2023-05-14T04:52:55;12.20;99.90
15991;DHT22;8100;50.994;4.538;2023-05-14T04:55:43;11.90;99.90
15991;DHT22;8100;50.994;4.538;2023-05-14T04:58:30;11.40;99.90
15991;DHT22;8100;50.994;4.538;2023-05-14T05:01:19;11.30;99.90
15991;DHT22;8100;50.994;4.538;2023-05-14T05:04:07;12.40;99.90
15991;DHT22;8100;50.994;4.538;2023-05-14T05:06:54;12.40;99.90
15991;DHT22;8100;50.994;4.538;2023-05-14T05:09:42;11.50;99.90
15991;DHT22;8100;50.994;4.538;2023-05-14T05:12:29;11.60;99.90
15991;DHT22;8100;50.994;4.538;2023-05-14T05:15:16;12.10;99.90
15991;DHT22;8100;50.994;4.538;2023-05-14T05:18:05;12.50;99.90
15991;DHT22;8100;50.994;4.538;2023-05-14T05:20:52;12.50;99.90
15991;DHT22;8100;50.994;4.538;2023-05-14T05:23:41;12.50;99.90
15991;DHT22;8100;50.994;4.538;2023-05-14T05:26:28;12.00;99.90
15991;DHT22;8100;50.994;4.538;2023-05-14T05:29:16;12.40;99.90
15991;DHT22;8100;50.994;4.538;2023-05-14T05:32:04;12.50;99.90
15991;DHT22;8100;50.994;4.538;2023-05-14T05:34:53;12.40;99.90
15991;DHT22;8100;50.994;4.538;2023-05-14T05:37:41;12.70;99.90
15991;DHT22;8100;50.994;4.538;2023-05-14T05:40:30;12.10;99.90
15991;DHT22;8100;50.994;4.538;2023-05-14T05:43:17;12.00;99.90
15991;DHT22;8100;50.994;4.538;2023-05-14T05:46:05;11.90;99.90
15991;DHT22;8100;50.994;4.538;2023-05-14T05:48:52;12.10;99.90
15991;DHT22;8100;50.994;4.538;2023-05-14T05:51:41;12.30;99.90
15991;DHT22;8100;50.994;4.538;2023-05-14T05:54:30;12.40;99.90
15991;DHT22;8100;50.994;4.538;2023-05-14T05:57:18;12.10;99.90
15991;DHT22;8100;50.994;4.538;2023-05-14T06:00:08;12.30;99.90
15991;DHT22;8100;50.994;4.538;2023-05-14T06:02:59;12.00;99.90
15991;DHT22;8100;50.994;4.538;2023-05-14T06:05:46;11.90;99.90
15991;DHT22;8100;50.994;4.538;2023-05-14T06:08:34;11.90;99.90
15991;DHT22;8100;50.994;4.538;2023-05-14T06:11:22;12.00;99.90
15991;DHT22;8100;50.994;4.538;2023-05-14T06:14:09;12.00;99.90
15991;DHT22;8100;50.994;4.538;2023-05-14T06:16:56;12.10;99.90
15991;DHT22;8100;50.994;4.538;2023-05-14T06:19:44;11.90;99.90
15991;DHT22;8100;50.994;4.538;2023-05-14T06:22:31;12.00;99.90
15991;DHT22;8100;50.994;4.538;2023-05-14T06:25:20;12.00;99.90
15991;DHT22;8100;50.994;4.538;2023-05-14T06:28:07;12.10;99.90
15991;DHT22;8100;50.994;4.538;2023-05-14T06:30:55;12.60;99.90
15991;DHT22;8100;50.994;4.538;2023-05-14T06:33:42;12.70;99.90
15991;DHT22;8100;50.994;4.538;2023-05-14T06:36:30;12.20;99.90
15991;DHT22;8100;50.994;4.538;2023-05-14T06:39:17;12.30;99.90
15991;DHT22;8100;50.994;4.538;2023-05-14T06:42:06;12.70;99.90
15991;DHT22;8100;50.994;4.538;2023-05-14T06:44:53;12.70;99.90
15991;DHT22;8100;50.994;4.538;2023-05-14T06:47:40;13.00;99.90
15991;DHT22;8100;50.994;4.538;2023-05-14T06:50:28;13.00;99.90
15991;DHT22;8100;50.994;4.538;2023-05-14T06:53:15;12.80;99.90
15991;DHT22;8100;50.994;4.538;2023-05-14T06:56:03;12.90;99.90
15991;DHT22;8100;50.994;4.538;2023-05-14T06:58:52;12.80;99.90
15991;DHT22;8100;50.994;4.538;2023-05-14T07:01:39;12.90;99.90
15991;DHT22;8100;50.994;4.538;2023-05-14T07:04:27;12.80;99.90
15991;DHT22;8100;50.994;4.538;2023-05-14T07:07:14;12.90;99.90
15991;DHT22;8100;50.994;4.538;2023-05-14T07:10:06;13.10;99.90
15991;DHT22;8100;50.994;4.538;2023-05-14T07:12:54;13.10;99.90
15991;DHT22;8100;50.994;4.538;2023-05-14T07:15:43;13.10;99.90
15991;DHT22;8100;50.994;4.538;2023-05-14T07:18:30;13.20;99.90
15991;DHT22;8100;50.994;4.538;2023-05-14T07:21:17;12.90;99.90
15991;DHT22;8100;50.994;4.538;2023-05-14T07:24:05;13.10;99.90
15991;DHT22;8100;50.994;4.538;2023-05-14T07:26:53;13.00;99.90
15991;DHT22;8100;50.994;4.538;2023-05-14T07:29:42;13.00;99.90
15991;DHT22;8100;50.994;4.538;2023-05-14T07:32:30;13.10;99.90
15991;DHT22;8100;50.994;4.538;2023-05-14T07:35:18;13.30;99.90
15991;DHT22;8100;50.994;4.538;2023-05-14T07:38:05;13.40;99.90
15991;DHT22;8100;50.994;4.538;2023-05-14T07:40:52;13.40;99.90
15991;DHT22;8100;50.994;4.538;2023-05-14T07:43:40;13.60;99.90
15991;DHT22;8100;50.994;4.538;2023-05-14T07:46:27;13.80;99.90
15991;DHT22;8100;50.994;4.538;2023-05-14T07:49:16;14.20;99.90
15991;DHT22;8100;50.994;4.538;2023-05-14T07:52:04;14.20;99.90
15991;DHT22;8100;50.994;4.538;2023-05-14T07:54:51;13.90;99.90
15991;DHT22;8100;50.994;4.538;2023-05-14T07:57:38;13.80;99.90
15991;DHT22;8100;50.994;4.538;2023-05-14T08:00:26;13.70;99.90
15991;DHT22;8100;50.994;4.538;2023-05-14T08:03:13;13.60;99.90
15991;DHT22;8100;50.994;4.538;2023-05-14T08:06:02;13.50;99.90
15991;DHT22;8100;50.994;4.538;2023-05-14T08:08:49;13.50;99.90
15991;DHT22;8100;50.994;4.538;2023-05-14T08:11:37;13.70;99.90
15991;DHT22;8100;50.994;4.538;2023-05-14T08:14:24;13.90;99.90
15991;DHT22;8100;50.994;4.538;2023-05-14T08:17:12;13.90;99.90
15991;DHT22;8100;50.994;4.538;2023-05-14T08:19:59;13.80;99.90
15991;DHT22;8100;50.994;4.538;2023-05-14T08:22:48;13.80;99.90
15991;DHT22;8100;50.994;4.538;2023-05-14T08:25:35;13.70;99.90
15991;DHT22;8100;50.994;4.538;2023-05-14T08:28:23;13.80;99.90
15991;DHT22;8100;50.994;4.538;2023-05-14T08:31:10;14.00;99.90
15991;DHT22;8100;50.994;4.538;2023-05-14T08:33:59;14.10;99.90
15991;DHT22;8100;50.994;4.538;2023-05-14T08:36:47;14.20;99.90
15991;DHT22;8100;50.994;4.538;2023-05-14T08:39:36;14.30;99.90
15991;DHT22;8100;50.994;4.538;2023-05-14T08:42:24;14.60;99.90
15991;DHT22;8100;50.994;4.538;2023-05-14T08:45:17;15.20;99.90
15991;DHT22;8100;50.994;4.538;2023-05-14T08:48:06;15.20;60.80
15991;DHT22;8100;50.994;4.538;2023-05-14T08:50:55;15.00;95.50
15991;DHT22;8100;50.994;4.538;2023-05-14T08:53:43;15.10;99.90
15991;DHT22;8100;50.994;4.538;2023-05-14T08:56:32;15.20;97.10
15991;DHT22;8100;50.994;4.538;2023-05-14T08:59:20;15.10;99.90
15991;DHT22;8100;50.994;4.538;2023-05-14T09:02:08;15.30;60.00
15991;DHT22;8100;50.994;4.538;2023-05-14T09:04:57;15.40;40.00
15991;DHT22;8100;50.994;4.538;2023-05-14T09:07:44;15.40;33.30
15991;DHT22;8100;50.994;4.538;2023-05-14T09:10:31;15.50;72.70
15991;DHT22;8100;50.994;4.538;2023-05-14T09:13:20;15.80;21.30
15991;DHT22;8100;50.994;4.538;2023-05-14T09:16:07;16.10;1.00
15991;DHT22;8100;50.994;4.538;2023-05-14T09:18:55;16.30;1.00
15991;DHT22;8100;50.994;4.538;2023-05-14T09:21:44;16.50;1.00
15991;DHT22;8100;50.994;4.538;2023-05-14T09:24:31;16.00;1.00
15991;DHT22;8100;50.994;4.538;2023-05-14T09:27:19;15.80;11.20
15991;DHT22;8100;50.994;4.538;2023-05-14T09:30:09;16.00;1.00
15991;DHT22;8100;50.994;4.538;2023-05-14T09:32:57;16.30;1.00
15991;DHT22;8100;50.994;4.538;2023-05-14T09:35:46;16.20;1.00
15991;DHT22;8100;50.994;4.538;2023-05-14T09:38:33;16.30;1.00
15991;DHT22;8100;50.994;4.538;2023-05-14T09:41:21;16.10;1.00
15991;DHT22;8100;50.994;4.538;2023-05-14T09:44:09;16.00;1.00
15991;DHT22;8100;50.994;4.538;2023-05-14T09:46:58;15.90;1.00
15991;DHT22;8100;50.994;4.538;2023-05-14T09:49:47;16.20;1.00
15991;DHT22;8100;50.994;4.538;2023-05-14T09:52:36;16.40;1.00
15991;DHT22;8100;50.994;4.538;2023-05-14T09:55:24;16.60;1.00
15991;DHT22;8100;50.994;4.538;2023-05-14T09:58:12;16.90;1.00
15991;DHT22;8100;50.994;4.538;2023-05-14T10:01:01;16.90;1.00
15991;DHT22;8100;50.994;4.538;2023-05-14T10:03:52;17.30;1.00
15991;DHT22;8100;50.994;4.538;2023-05-14T10:06:39;16.80;1.00
15991;DHT22;8100;50.994;4.538;2023-05-14T10:09:28;16.70;1.00
15991;DHT22;8100;50.994;4.538;2023-05-14T10:12:21;16.40;1.00
15991;DHT22;8100;50.994;4.538;2023-05-14T10:15:14;16.30;1.00
15991;DHT22;8100;50.994;4.538;2023-05-14T10:18:06;16.50;1.00
15991;DHT22;8100;50.994;4.538;2023-05-14T10:21:02;16.40;1.00
15991;DHT22;8100;50.994;4.538;2023-05-14T10:23:51;16.90;1.00
15991;DHT22;8100;50.994;4.538;2023-05-14T10:26:39;16.80;1.00
15991;DHT22;8100;50.994;4.538;2023-05-14T10:29:34;16.60;1.00
15991;DHT22;8100;50.994;4.538;2023-05-14T10:32:23;17.00;1.00
15991;DHT22;8100;50.994;4.538;2023-05-14T10:35:15;17.20;1.00
15991;DHT22;8100;50.994;4.538;2023-05-14T10:38:08;17.30;1.00
15991;DHT22;8100;50.994;4.538;2023-05-14T10:40:58;17.60;1.00
15991;DHT22;8100;50.994;4.538;2023-05-14T10:43:46;17.80;1.00
15991;DHT22;8100;50.994;4.538;2023-05-14T10:46:34;17.90;1.00
15991;DHT22;8100;50.994;4.538;2023-05-14T10:49:22;17.60;1.00
15991;DHT22;8100;50.994;4.538;2023-05-14T10:52:10;17.10;1.00
15991;DHT22;8100;50.994;4.538;2023-05-14T10:55:00;17.20;1.00
15991;DHT22;8100;50.994;4.538;2023-05-14T10:57:48;17.50;1.00
15991;DHT22;8100;50.994;4.538;2023-05-14T11:00:36;17.70;1.00
15991;DHT22;8100;50.994;4.538;2023-05-14T11:03:28;17.60;99.90
15991;DHT22;8100;50.994;4.538;2023-05-14T11:06:15;17.60;99.90
15991;DHT22;8100;50.994;4.538;2023-05-14T11:09:03;17.90;99.90
15991;DHT22;8100;50.994;4.538;2023-05-14T11:11:53;18.30;99.90
15991;DHT22;8100;50.994;4.538;2023-05-14T11:14:40;18.60;1.00
15991;DHT22;8100;50.994;4.538;2023-05-14T11:17:30;18.30;1.00
15991;DHT22;8100;50.994;4.538;2023-05-14T11:20:18;18.20;1.00
15991;DHT22;8100;50.994;4.538;2023-05-14T11:23:06;18.40;1.00
15991;DHT22;8100;50.994;4.538;2023-05-14T11:25:54;18.70;1.00
15991;DHT22;8100;50.994;4.538;2023-05-14T11:28:43;18.90;1.00
15991;DHT22;8100;50.994;4.538;2023-05-14T11:31:31;18.90;1.00
15991;DHT22;8100;50.994;4.538;2023-05-14T11:34:19;18.90;1.00
15991;DHT22;8100;50.994;4.538;2023-05-14T11:37:07;19.10;1.00
15991;DHT22;8100;50.994;4.538;2023-05-14T11:40:00;18.70;99.90
15991;DHT22;8100;50.994;4.538;2023-05-14T11:42:50;18.60;99.90
15991;DHT22;8100;50.994;4.538;2023-05-14T11:45:38;19.00;99.90
15991;DHT22;8100;50.994;4.538;2023-05-14T11:48:26;19.10;99.90
15991;DHT22;8100;50.994;4.538;2023-05-14T11:51:14;19.30;99.90
15991;DHT22;8100;50.994;4.538;2023-05-14T11:54:01;19.20;99.90
15991;DHT22;8100;50.994;4.538;2023-05-14T11:56:50;19.20;99.90
15991;DHT22;8100;50.994;4.538;2023-05-14T11:59:38;19.10;99.90
15991;DHT22;8100;50.994;4.538;2023-05-14T12:02:27;18.90;99.90
15991;DHT22;8100;50.994;4.538;2023-05-14T12:05:15;19.20;99.90
15991;DHT22;8100;50.994;4.538;2023-05-14T12:08:02;19.40;99.90
15991;DHT22;8100;50.994;4.538;2023-05-14T12:10:49;19.40;99.90
15991;DHT22;8100;50.994;4.538;2023-05-14T12:13:37;19.30;99.90
15991;DHT22;8100;50.994;4.538;2023-05-14T12:16:29;19.60;99.90
15991;DHT22;8100;50.994;4.538;2023-05-14T12:19:19;19.70;99.90
15991;DHT22;8100;50.994;4.538;2023-05-14T12:22:08;19.90;99.90
15991;DHT22;8100;50.994;4.538;2023-05-14T12:24:57;19.70;99.90
15991;DHT22;8100;50.994;4.538;2023-05-14T12:27:45;19.60;99.90
15991;DHT22;8100;50.994;4.538;2023-05-14T12:30:36;19.70;99.90
15991;DHT22;8100;50.994;4.538;2023-05-14T12:33:24;19.90;99.90
15991;DHT22;8100;50.994;4.538;2023-05-14T12:36:13;20.20;99.90
15991;DHT22;8100;50.994;4.538;2023-05-14T12:39:01;20.50;99.90
15991;DHT22;8100;50.994;4.538;2023-05-14T12:41:50;20.40;99.90
15991;DHT22;8100;50.994;4.538;2023-05-14T12:44:37;20.60;99.90
15991;DHT22;8100;50.994;4.538;2023-05-14T12:47:25;20.40;99.90
15991;DHT22;8100;50.994;4.538;2023-05-14T12:50:12;20.30;99.90
15991;DHT22;8100;50.994;4.538;2023-05-14T12:53:01;20.80;99.90
15991;DHT22;8100;50.994;4.538;2023-05-14T12:55:49;21.10;99.90
15991;DHT22;8100;50.994;4.538;2023-05-14T12:58:37;21.00;99.90
15991;DHT22;8100;50.994;4.538;2023-05-14T13:01:24;21.10;99.90
15991;DHT22;8100;50.994;4.538;2023-05-14T13:04:11;21.50;99.90
15991;DHT22;8100;50.994;4.538;2023-05-14T13:06:58;21.30;99.90
15991;DHT22;8100;50.994;4.538;2023-05-14T13:09:47;21.20;99.90
15991;DHT22;8100;50.994;4.538;2023-05-14T13:12:34;21.20;99.90
15991;DHT22;8100;50.994;4.538;2023-05-14T13:15:22;21.40;99.90
15991;DHT22;8100;50.994;4.538;2023-05-14T13:18:09;21.90;99.90
15991;DHT22;8100;50.994;4.538;2023-05-14T13:20:56;22.00;1.00
15991;DHT22;8100;50.994;4.538;2023-05-14T13:23:44;21.90;99.90
15991;DHT22;8100;50.994;4.538;2023-05-14T13:26:32;22.00;99.90
15991;DHT22;8100;50.994;4.538;2023-05-14T13:29:20;22.30;99.90
15991;DHT22;8100;50.994;4.538;2023-05-14T13:32:07;22.40;20.30
15991;DHT22;8100;50.994;4.538;2023-05-14T13:34:54;22.20;1.00
15991;DHT22;8100;50.994;4.538;2023-05-14T13:37:42;21.80;1.00
15991;DHT22;8100;50.994;4.538;2023-05-14T13:40:29;21.80;1.00
15991;DHT22;8100;50.994;4.538;2023-05-14T13:43:18;22.30;60.40
15991;DHT22;8100;50.994;4.538;2023-05-14T13:45:53;23.40;99.90
15991;DHT22;8100;50.994;4.538;2023-05-14T13:48:21;24.80;99.90
15991;DHT22;8100;50.994;4.538;2023-05-14T13:51:07;25.00;1.00
15991;DHT22;8100;50.994;4.538;2023-05-14T13:53:54;25.70;99.90
15991;DHT22;8100;50.994;4.538;2023-05-14T13:56:22;25.00;99.90
15991;DHT22;8100;50.994;4.538;2023-05-14T13:58:50;25.80;1.00
15991;DHT22;8100;50.994;4.538;2023-05-14T14:01:17;26.90;99.90
15991;DHT22;8100;50.994;4.538;2023-05-14T14:03:44;26.80;1.00
15991;DHT22;8100;50.994;4.538;2023-05-14T14:06:12;25.50;99.90
15991;DHT22;8100;50.994;4.538;2023-05-14T14:08:39;25.80;99.90
15991;DHT22;8100;50.994;4.538;2023-05-14T14:11:06;25.80;1.00
15991;DHT22;8100;50.994;4.538;2023-05-14T14:13:33;25.40;1.00
15991;DHT22;8100;50.994;4.538;2023-05-14T14:16:02;24.50;1.00
15991;DHT22;8100;50.994;4.538;2023-05-14T14:18:30;24.50;99.90
15991;DHT22;8100;50.994;4.538;2023-05-14T14:20:57;23.70;99.90
15991;DHT22;8100;50.994;4.538;2023-05-14T14:23:25;23.30;99.90
15991;DHT22;8100;50.994;4.538;2023-05-14T14:25:52;23.50;99.90
15991;DHT22;8100;50.994;4.538;2023-05-14T14:28:19;23.40;99.90
15991;DHT22;8100;50.994;4.538;2023-05-14T14:30:46;23.30;1.00
15991;DHT22;8100;50.994;4.538;2023-05-14T14:33:14;23.40;1.00
15991;DHT22;8100;50.994;4.538;2023-05-14T14:35:41;24.10;1.00
15991;DHT22;8100;50.994;4.538;2023-05-14T14:38:08;24.30;99.90
15991;DHT22;8100;50.994;4.538;2023-05-14T14:40:35;24.10;99.90
15991;DHT22;8100;50.994;4.538;2023-05-14T14:43:02;23.70;1.00
15991;DHT22;8100;50.994;4.538;2023-05-14T14:45:29;23.80;1.00
15991;DHT22;8100;50.994;4.538;2023-05-14T14:48:22;23.60;99.90
15991;DHT22;8100;50.994;4.538;2023-05-14T14:50:49;23.30;99.90
15991;DHT22;8100;50.994;4.538;2023-05-14T14:53:18;22.80;99.90
15991;DHT22;8100;50.994;4.538;2023-05-14T14:55:46;23.00;99.90
15991;DHT22;8100;50.994;4.538;2023-05-14T14:58:13;23.00;99.90
15991;DHT22;8100;50.994;4.538;2023-05-14T15:00:40;22.80;99.90
15991;DHT22;8100;50.994;4.538;2023-05-14T15:03:07;22.50;99.90
15991;DHT22;8100;50.994;4.538;2023-05-14T15:05:36;23.00;99.90
15991;DHT22;8100;50.994;4.538;2023-05-14T15:08:04;23.10;99.90
15991;DHT22;8100;50.994;4.538;2023-05-14T15:10:31;22.90;99.90
15991;DHT22;8100;50.994;4.538;2023-05-14T15:13:02;22.80;99.90
15991;DHT22;8100;50.994;4.538;2023-05-14T15:15:30;22.40;99.90
15991;DHT22;8100;50.994;4.538;2023-05-14T15:17:58;22.30;99.90
15991;DHT22;8100;50.994;4.538;2023-05-14T15:20:25;22.00;99.90
15991;DHT22;8100;50.994;4.538;2023-05-14T15:22:53;21.90;99.90
15991;DHT22;8100;50.994;4.538;2023-05-14T15:25:21;22.10;99.90
15991;DHT22;8100;50.994;4.538;2023-05-14T15:27:50;22.60;99.90
15991;DHT22;8100;50.994;4.538;2023-05-14T15:30:17;23.20;1.00
15991;DHT22;8100;50.994;4.538;2023-05-14T15:32:44;23.40;99.90
15991;DHT22;8100;50.994;4.538;2023-05-14T15:35:11;23.20;99.90
15991;DHT22;8100;50.994;4.538;2023-05-14T15:37:40;23.00;99.90
15991;DHT22;8100;50.994;4.538;2023-05-14T15:40:09;22.90;99.90
15991;DHT22;8100;50.994;4.538;2023-05-14T15:42:38;22.60;99.90
15991;DHT22;8100;50.994;4.538;2023-05-14T15:45:07;22.30;1.00
15991;DHT22;8100;50.994;4.538;2023-05-14T15:47:35;21.60;1.00
15991;DHT22;8100;50.994;4.538;2023-05-14T15:50:02;21.70;99.90
15991;DHT22;8100;50.994;4.538;2023-05-14T15:52:29;21.80;99.90
15991;DHT22;8100;50.994;4.538;2023-05-14T15:54:56;22.20;1.00
15991;DHT22;8100;50.994;4.538;2023-05-14T15:57:25;21.80;1.00
15991;DHT22;8100;50.994;4.538;2023-05-14T15:59:52;22.00;99.90
15991;DHT22;8100;50.994;4.538;2023-05-14T16:02:21;22.30;99.90
15991;DHT22;8100;50.994;4.538;2023-05-14T16:04:48;22.60;1.00
15991;DHT22;8100;50.994;4.538;2023-05-14T16:07:15;22.50;1.00
15991;DHT22;8100;50.994;4.538;2023-05-14T16:09:42;22.40;99.90
15991;DHT22;8100;50.994;4.538;2023-05-14T16:12:09;21.70;1.00
15991;DHT22;8100;50.994;4.538;2023-05-14T16:14:38;21.60;99.90
15991;DHT22;8100;50.994;4.538;2023-05-14T16:17:06;21.50;99.90
15991;DHT22;8100;50.994;4.538;2023-05-14T16:19:33;21.70;99.90
15991;DHT22;8100;50.994;4.538;2023-05-14T16:22:00;21.40;99.90
15991;DHT22;8100;50.994;4.538;2023-05-14T16:24:27;21.70;99.90
15991;DHT22;8100;50.994;4.538;2023-05-14T16:26:54;21.60;1.00
15991;DHT22;8100;50.994;4.538;2023-05-14T16:29:42;21.40;99.90
15991;DHT22;8100;50.994;4.538;2023-05-14T16:32:29;20.30;92.40
15991;DHT22;8100;50.994;4.538;2023-05-14T16:35:17;20.20;99.90
15991;DHT22;8100;50.994;4.538;2023-05-14T16:38:05;19.60;99.90
15991;DHT22;8100;50.994;4.538;2023-05-14T16:40:52;19.20;1.00
15991;DHT22;8100;50.994;4.538;2023-05-14T16:43:39;19.00;1.00
15991;DHT22;8100;50.994;4.538;2023-05-14T16:46:28;18.90;99.90
15991;DHT22;8100;50.994;4.538;2023-05-14T16:49:16;18.70;99.90
15991;DHT22;8100;50.994;4.538;2023-05-14T16:52:07;18.50;1.00
15991;DHT22;8100;50.994;4.538;2023-05-14T16:54:54;18.50;99.90
15991;DHT22;8100;50.994;4.538;2023-05-14T16:57:41;18.50;1.00
15991;DHT22;8100;50.994;4.538;2023-05-14T17:00:29;18.60;99.90
15991;DHT22;8100;50.994;4.538;2023-05-14T17:03:18;18.50;99.90
15991;DHT22;8100;50.994;4.538;2023-05-14T17:06:06;18.30;59.20
15991;DHT22;8100;50.994;4.538;2023-05-14T17:08:55;18.50;99.90
15991;DHT22;8100;50.994;4.538;2023-05-14T17:11:42;18.70;1.00
15991;DHT22;8100;50.994;4.538;2023-05-14T17:14:29;18.70;99.90
15991;DHT22;8100;50.994;4.538;2023-05-14T17:17:16;18.20;99.90
15991;DHT22;8100;50.994;4.538;2023-05-14T17:20:06;18.00;99.90
15991;DHT22;8100;50.994;4.538;2023-05-14T17:22:54;18.10;99.90
15991;DHT22;8100;50.994;4.538;2023-05-14T17:25:41;17.70;99.90
15991;DHT22;8100;50.994;4.538;2023-05-14T17:28:28;17.50;99.90
15991;DHT22;8100;50.994;4.538;2023-05-14T17:31:16;17.40;99.90
15991;DHT22;8100;50.994;4.538;2023-05-14T17:34:03;17.30;99.90
15991;DHT22;8100;50.994;4.538;2023-05-14T17:36:52;17.20;99.90
15991;DHT22;8100;50.994;4.538;2023-05-14T17:39:39;16.90;99.90
15991;DHT22;8100;50.994;4.538;2023-05-14T17:42:27;17.00;1.00